sensor_id;sensor_type;location;lat;lon;timestamp;P1;durP1;ratioP1;P2;durP2;ratioP2
22644;SDS011;11489;50.834;6.752;2022-09-16T00:02:24;3.58;;;1.23;;
22644;SDS011;11489;50.834;6.752;2022-09-16T00:04:49;4.97;;;1.15;;
22644;SDS011;11489;50.834;6.752;2022-09-16T00:07:15;3.92;;;1.30;;
22644;SDS011;11489;50.834;6.752;2022-09-16T00:09:41;2.30;;;0.90;;
22644;SDS011;11489;50.834;6.752;2022-09-16T00:12:06;3.60;;;1.13;;
22644;SDS011;11489;50.834;6.752;2022-09-16T00:14:32;2.10;;;0.95;;
22644;SDS011;11489;50.834;6.752;2022-09-16T00:16:58;4.22;;;1.33;;
22644;SDS011;11489;50.834;6.752;2022-09-16T00:19:23;2.45;;;1.00;;
22644;SDS011;11489;50.834;6.752;2022-09-16T00:21:49;3.80;;;1.23;;
22644;SDS011;11489;50.834;6.752;2022-09-16T00:24:15;6.68;;;1.38;;
22644;SDS011;11489;50.834;6.752;2022-09-16T00:26:41;3.97;;;1.15;;
22644;SDS011;11489;50.834;6.752;2022-09-16T00:29:07;1.83;;;1.00;;
22644;SDS011;11489;50.834;6.752;2022-09-16T00:31:33;6.57;;;1.08;;
22644;SDS011;11489;50.834;6.752;2022-09-16T00:33:59;3.95;;;1.00;;
22644;SDS011;11489;50.834;6.752;2022-09-16T00:36:25;4.38;;;1.17;;
22644;SDS011;11489;50.834;6.752;2022-09-16T00:38:51;7.40;;;1.08;;
22644;SDS011;11489;50.834;6.752;2022-09-16T00:41:20;4.22;;;1.00;;
22644;SDS011;11489;50.834;6.752;2022-09-16T00:43:58;3.00;;;1.17;;
22644;SDS011;11489;50.834;6.752;2022-09-16T00:46:39;2.60;;;0.95;;
22644;SDS011;11489;50.834;6.752;2022-09-16T00:49:10;6.93;;;1.50;;
22644;SDS011;11489;50.834;6.752;2022-09-16T00:51:36;3.20;;;1.00;;
22644;SDS011;11489;50.834;6.752;2022-09-16T00:54:03;1.90;;;1.10;;
22644;SDS011;11489;50.834;6.752;2022-09-16T00:56:30;8.02;;;1.40;;
22644;SDS011;11489;50.834;6.752;2022-09-16T00:59:03;4.57;;;1.42;;
22644;SDS011;11489;50.834;6.752;2022-09-16T01:01:33;2.90;;;1.45;;
22644;SDS011;11489;50.834;6.752;2022-09-16T01:04:03;4.45;;;1.30;;
22644;SDS011;11489;50.834;6.752;2022-09-16T01:06:37;2.67;;;1.40;;
22644;SDS011;11489;50.834;6.752;2022-09-16T01:09:04;3.53;;;1.30;;
22644;SDS011;11489;50.834;6.752;2022-09-16T01:11:30;3.45;;;1.13;;
22644;SDS011;11489;50.834;6.752;2022-09-16T01:13:56;3.33;;;1.23;;
22644;SDS011;11489;50.834;6.752;2022-09-16T01:16:44;3.17;;;1.00;;
22644;SDS011;11489;50.834;6.752;2022-09-16T01:27:43;3.95;;;1.30;;
22644;SDS011;11489;50.834;6.752;2022-09-16T01:33:05;4.03;;;1.45;;
22644;SDS011;11489;50.834;6.752;2022-09-16T01:38:25;2.88;;;1.40;;
22644;SDS011;11489;50.834;6.752;2022-09-16T01:41:06;6.65;;;1.45;;
22644;SDS011;11489;50.834;6.752;2022-09-16T01:46:23;5.60;;;1.60;;
22644;SDS011;11489;50.834;6.752;2022-09-16T01:48:59;4.03;;;1.70;;
22644;SDS011;11489;50.834;6.752;2022-09-16T01:51:34;6.78;;;1.70;;
22644;SDS011;11489;50.834;6.752;2022-09-16T01:54:32;5.95;;;1.60;;
22644;SDS011;11489;50.834;6.752;2022-09-16T01:57:05;6.45;;;1.63;;
22644;SDS011;11489;50.834;6.752;2022-09-16T01:59:41;3.63;;;1.92;;
22644;SDS011;11489;50.834;6.752;2022-09-16T02:02:19;3.47;;;1.40;;
22644;SDS011;11489;50.834;6.752;2022-09-16T02:04:55;3.53;;;1.55;;
22644;SDS011;11489;50.834;6.752;2022-09-16T02:07:24;3.50;;;1.55;;
22644;SDS011;11489;50.834;6.752;2022-09-16T02:09:56;6.07;;;1.70;;
22644;SDS011;11489;50.834;6.752;2022-09-16T02:12:26;7.65;;;1.70;;
22644;SDS011;11489;50.834;6.752;2022-09-16T02:14:58;4.50;;;1.45;;
22644;SDS011;11489;50.834;6.752;2022-09-16T02:17:31;4.90;;;1.65;;
22644;SDS011;11489;50.834;6.752;2022-09-16T02:20:04;3.45;;;1.95;;
22644;SDS011;11489;50.834;6.752;2022-09-16T02:22:36;7.40;;;1.90;;
22644;SDS011;11489;50.834;6.752;2022-09-16T02:25:13;3.90;;;1.67;;
22644;SDS011;11489;50.834;6.752;2022-09-16T02:27:42;5.75;;;1.67;;
22644;SDS011;11489;50.834;6.752;2022-09-16T02:30:13;5.97;;;1.70;;
22644;SDS011;11489;50.834;6.752;2022-09-16T02:32:42;3.80;;;1.95;;
22644;SDS011;11489;50.834;6.752;2022-09-16T02:35:11;5.60;;;1.70;;
22644;SDS011;11489;50.834;6.752;2022-09-16T02:37:51;3.15;;;1.60;;
22644;SDS011;11489;50.834;6.752;2022-09-16T02:40:36;9.90;;;1.92;;
22644;SDS011;11489;50.834;6.752;2022-09-16T02:43:10;6.32;;;1.70;;
22644;SDS011;11489;50.834;6.752;2022-09-16T02:45:39;3.67;;;1.80;;
22644;SDS011;11489;50.834;6.752;2022-09-16T02:50:51;4.60;;;1.60;;
22644;SDS011;11489;50.834;6.752;2022-09-16T02:53:39;4.63;;;1.75;;
22644;SDS011;11489;50.834;6.752;2022-09-16T02:56:23;4.10;;;1.67;;
22644;SDS011;11489;50.834;6.752;2022-09-16T02:58:55;5.35;;;1.83;;
22644;SDS011;11489;50.834;6.752;2022-09-16T03:01:21;3.10;;;1.42;;
22644;SDS011;11489;50.834;6.752;2022-09-16T03:03:48;5.15;;;1.70;;
22644;SDS011;11489;50.834;6.752;2022-09-16T03:06:19;5.20;;;1.80;;
22644;SDS011;11489;50.834;6.752;2022-09-16T03:08:47;3.35;;;1.67;;
22644;SDS011;11489;50.834;6.752;2022-09-16T03:11:17;3.90;;;1.85;;
22644;SDS011;11489;50.834;6.752;2022-09-16T03:16:49;3.72;;;1.90;;
22644;SDS011;11489;50.834;6.752;2022-09-16T03:28:18;5.85;;;1.80;;
22644;SDS011;11489;50.834;6.752;2022-09-16T03:30:58;4.60;;;2.10;;
22644;SDS011;11489;50.834;6.752;2022-09-16T03:33:35;6.70;;;1.77;;
22644;SDS011;11489;50.834;6.752;2022-09-16T03:36:10;5.00;;;1.77;;
22644;SDS011;11489;50.834;6.752;2022-09-16T03:38:38;3.65;;;1.80;;
22644;SDS011;11489;50.834;6.752;2022-09-16T03:41:05;4.70;;;1.60;;
22644;SDS011;11489;50.834;6.752;2022-09-16T03:43:32;3.47;;;1.48;;
22644;SDS011;11489;50.834;6.752;2022-09-16T03:45:58;3.13;;;1.70;;
22644;SDS011;11489;50.834;6.752;2022-09-16T03:48:23;9.75;;;1.85;;
22644;SDS011;11489;50.834;6.752;2022-09-16T03:50:49;5.43;;;1.67;;
22644;SDS011;11489;50.834;6.752;2022-09-16T03:53:15;6.63;;;1.73;;
22644;SDS011;11489;50.834;6.752;2022-09-16T03:55:40;6.68;;;1.60;;
22644;SDS011;11489;50.834;6.752;2022-09-16T03:58:06;7.45;;;1.85;;
22644;SDS011;11489;50.834;6.752;2022-09-16T04:00:32;4.93;;;1.60;;
22644;SDS011;11489;50.834;6.752;2022-09-16T04:02:58;4.68;;;1.42;;
22644;SDS011;11489;50.834;6.752;2022-09-16T04:05:24;3.70;;;1.48;;
22644;SDS011;11489;50.834;6.752;2022-09-16T04:07:51;4.60;;;1.75;;
22644;SDS011;11489;50.834;6.752;2022-09-16T04:10:17;6.38;;;2.35;;
22644;SDS011;11489;50.834;6.752;2022-09-16T04:12:43;7.65;;;1.73;;
22644;SDS011;11489;50.834;6.752;2022-09-16T04:15:09;6.50;;;1.75;;
22644;SDS011;11489;50.834;6.752;2022-09-16T04:17:36;8.57;;;2.20;;
22644;SDS011;11489;50.834;6.752;2022-09-16T04:20:02;5.43;;;1.80;;
22644;SDS011;11489;50.834;6.752;2022-09-16T04:22:29;4.95;;;2.20;;
22644;SDS011;11489;50.834;6.752;2022-09-16T04:24:56;6.60;;;2.05;;
22644;SDS011;11489;50.834;6.752;2022-09-16T04:27:22;10.38;;;2.35;;
22644;SDS011;11489;50.834;6.752;2022-09-16T04:29:47;8.73;;;1.98;;
22644;SDS011;11489;50.834;6.752;2022-09-16T04:32:13;8.80;;;1.75;;
22644;SDS011;11489;50.834;6.752;2022-09-16T04:34:39;8.07;;;2.47;;
22644;SDS011;11489;50.834;6.752;2022-09-16T04:37:05;8.00;;;2.00;;
22644;SDS011;11489;50.834;6.752;2022-09-16T04:39:31;9.68;;;2.20;;
22644;SDS011;11489;50.834;6.752;2022-09-16T04:41:56;9.40;;;1.85;;
22644;SDS011;11489;50.834;6.752;2022-09-16T04:44:23;8.13;;;1.95;;
22644;SDS011;11489;50.834;6.752;2022-09-16T04:46:50;8.15;;;1.75;;
22644;SDS011;11489;50.834;6.752;2022-09-16T04:49:16;3.97;;;1.92;;
22644;SDS011;11489;50.834;6.752;2022-09-16T04:51:42;4.13;;;1.63;;
22644;SDS011;11489;50.834;6.752;2022-09-16T04:54:07;7.45;;;1.60;;
22644;SDS011;11489;50.834;6.752;2022-09-16T04:56:33;4.97;;;1.50;;
22644;SDS011;11489;50.834;6.752;2022-09-16T04:59:00;4.75;;;1.33;;
22644;SDS011;11489;50.834;6.752;2022-09-16T05:01:28;6.57;;;1.45;;
22644;SDS011;11489;50.834;6.752;2022-09-16T05:03:59;4.28;;;1.60;;
22644;SDS011;11489;50.834;6.752;2022-09-16T05:06:28;5.28;;;1.40;;
22644;SDS011;11489;50.834;6.752;2022-09-16T05:08:56;5.20;;;1.77;;
22644;SDS011;11489;50.834;6.752;2022-09-16T05:11:23;6.07;;;1.60;;
22644;SDS011;11489;50.834;6.752;2022-09-16T05:13:50;4.82;;;1.50;;
22644;SDS011;11489;50.834;6.752;2022-09-16T05:16:17;6.63;;;1.50;;
22644;SDS011;11489;50.834;6.752;2022-09-16T05:18:45;8.63;;;1.65;;
22644;SDS011;11489;50.834;6.752;2022-09-16T05:21:13;5.65;;;1.23;;
22644;SDS011;11489;50.834;6.752;2022-09-16T05:23:40;5.80;;;1.60;;
22644;SDS011;11489;50.834;6.752;2022-09-16T05:26:10;4.30;;;1.40;;
22644;SDS011;11489;50.834;6.752;2022-09-16T05:28:38;3.25;;;1.55;;
22644;SDS011;11489;50.834;6.752;2022-09-16T05:31:11;5.20;;;1.77;;
22644;SDS011;11489;50.834;6.752;2022-09-16T05:33:43;3.75;;;1.40;;
22644;SDS011;11489;50.834;6.752;2022-09-16T05:36:17;7.55;;;1.52;;
22644;SDS011;11489;50.834;6.752;2022-09-16T05:38:43;6.55;;;1.67;;
22644;SDS011;11489;50.834;6.752;2022-09-16T05:41:10;4.38;;;2.00;;
22644;SDS011;11489;50.834;6.752;2022-09-16T05:43:36;5.85;;;1.58;;
22644;SDS011;11489;50.834;6.752;2022-09-16T05:46:02;3.50;;;1.55;;
22644;SDS011;11489;50.834;6.752;2022-09-16T05:48:29;3.88;;;1.60;;
22644;SDS011;11489;50.834;6.752;2022-09-16T05:50:56;3.13;;;1.67;;
22644;SDS011;11489;50.834;6.752;2022-09-16T05:53:27;6.40;;;1.60;;
22644;SDS011;11489;50.834;6.752;2022-09-16T05:58:24;6.82;;;1.58;;
22644;SDS011;11489;50.834;6.752;2022-09-16T06:00:51;6.25;;;1.55;;
22644;SDS011;11489;50.834;6.752;2022-09-16T06:03:26;6.07;;;1.90;;
22644;SDS011;11489;50.834;6.752;2022-09-16T06:05:58;7.03;;;1.65;;
22644;SDS011;11489;50.834;6.752;2022-09-16T06:08:24;3.97;;;1.48;;
22644;SDS011;11489;50.834;6.752;2022-09-16T06:10:50;7.40;;;1.77;;
22644;SDS011;11489;50.834;6.752;2022-09-16T06:13:16;3.38;;;1.50;;
22644;SDS011;11489;50.834;6.752;2022-09-16T06:15:50;3.65;;;1.50;;
22644;SDS011;11489;50.834;6.752;2022-09-16T06:18:19;5.63;;;1.40;;
22644;SDS011;11489;50.834;6.752;2022-09-16T06:20:46;4.07;;;1.35;;
22644;SDS011;11489;50.834;6.752;2022-09-16T06:23:12;2.90;;;1.23;;
22644;SDS011;11489;50.834;6.752;2022-09-16T06:25:40;7.25;;;1.30;;
22644;SDS011;11489;50.834;6.752;2022-09-16T06:28:06;3.33;;;1.17;;
22644;SDS011;11489;50.834;6.752;2022-09-16T06:30:38;4.03;;;1.23;;
22644;SDS011;11489;50.834;6.752;2022-09-16T06:33:04;4.82;;;1.30;;
22644;SDS011;11489;50.834;6.752;2022-09-16T06:35:30;1.73;;;1.10;;
22644;SDS011;11489;50.834;6.752;2022-09-16T06:37:57;3.50;;;1.20;;
22644;SDS011;11489;50.834;6.752;2022-09-16T06:40:23;5.55;;;1.20;;
22644;SDS011;11489;50.834;6.752;2022-09-16T06:42:51;3.30;;;1.20;;
22644;SDS011;11489;50.834;6.752;2022-09-16T06:45:18;2.53;;;1.02;;
22644;SDS011;11489;50.834;6.752;2022-09-16T06:47:44;7.53;;;1.38;;
22644;SDS011;11489;50.834;6.752;2022-09-16T06:50:10;5.32;;;1.33;;
22644;SDS011;11489;50.834;6.752;2022-09-16T06:52:36;6.20;;;1.20;;
22644;SDS011;11489;50.834;6.752;2022-09-16T06:55:01;1.98;;;1.00;;
22644;SDS011;11489;50.834;6.752;2022-09-16T06:57:27;2.38;;;1.10;;
22644;SDS011;11489;50.834;6.752;2022-09-16T06:59:54;3.58;;;1.30;;
22644;SDS011;11489;50.834;6.752;2022-09-16T07:02:19;4.88;;;1.60;;
22644;SDS011;11489;50.834;6.752;2022-09-16T07:04:45;4.97;;;1.50;;
22644;SDS011;11489;50.834;6.752;2022-09-16T07:07:11;6.68;;;1.48;;
22644;SDS011;11489;50.834;6.752;2022-09-16T07:09:37;7.50;;;1.60;;
22644;SDS011;11489;50.834;6.752;2022-09-16T07:12:03;5.15;;;1.50;;
22644;SDS011;11489;50.834;6.752;2022-09-16T07:14:30;3.88;;;1.33;;
22644;SDS011;11489;50.834;6.752;2022-09-16T07:16:59;2.95;;;1.13;;
22644;SDS011;11489;50.834;6.752;2022-09-16T07:19:26;3.92;;;1.20;;
22644;SDS011;11489;50.834;6.752;2022-09-16T07:21:52;5.57;;;1.08;;
22644;SDS011;11489;50.834;6.752;2022-09-16T07:24:18;4.40;;;1.30;;
22644;SDS011;11489;50.834;6.752;2022-09-16T07:26:44;4.05;;;0.93;;
22644;SDS011;11489;50.834;6.752;2022-09-16T07:29:11;5.65;;;0.93;;
22644;SDS011;11489;50.834;6.752;2022-09-16T07:31:38;3.80;;;1.20;;
22644;SDS011;11489;50.834;6.752;2022-09-16T07:34:09;6.85;;;0.93;;
22644;SDS011;11489;50.834;6.752;2022-09-16T07:36:37;3.45;;;0.90;;
22644;SDS011;11489;50.834;6.752;2022-09-16T07:39:08;4.90;;;1.05;;
22644;SDS011;11489;50.834;6.752;2022-09-16T07:41:35;4.90;;;1.13;;
22644;SDS011;11489;50.834;6.752;2022-09-16T07:44:03;5.07;;;1.00;;
22644;SDS011;11489;50.834;6.752;2022-09-16T07:46:30;1.85;;;0.60;;
22644;SDS011;11489;50.834;6.752;2022-09-16T07:48:58;2.75;;;0.95;;
22644;SDS011;11489;50.834;6.752;2022-09-16T07:51:25;3.65;;;0.88;;
22644;SDS011;11489;50.834;6.752;2022-09-16T07:53:53;5.22;;;1.13;;
22644;SDS011;11489;50.834;6.752;2022-09-16T07:56:21;2.33;;;0.88;;
22644;SDS011;11489;50.834;6.752;2022-09-16T07:58:49;2.97;;;1.00;;
22644;SDS011;11489;50.834;6.752;2022-09-16T08:01:15;1.48;;;0.95;;
22644;SDS011;11489;50.834;6.752;2022-09-16T08:03:42;4.38;;;0.85;;
22644;SDS011;11489;50.834;6.752;2022-09-16T08:06:11;5.50;;;0.93;;
22644;SDS011;11489;50.834;6.752;2022-09-16T08:08:40;4.20;;;1.00;;
22644;SDS011;11489;50.834;6.752;2022-09-16T08:11:06;5.25;;;0.98;;
22644;SDS011;11489;50.834;6.752;2022-09-16T08:13:34;6.35;;;0.90;;
22644;SDS011;11489;50.834;6.752;2022-09-16T08:16:01;5.00;;;0.80;;
22644;SDS011;11489;50.834;6.752;2022-09-16T08:18:37;2.60;;;0.80;;
22644;SDS011;11489;50.834;6.752;2022-09-16T08:21:07;2.67;;;0.70;;
22644;SDS011;11489;50.834;6.752;2022-09-16T08:23:38;2.05;;;0.77;;
22644;SDS011;11489;50.834;6.752;2022-09-16T08:26:04;2.75;;;0.80;;
22644;SDS011;11489;50.834;6.752;2022-09-16T08:28:32;2.22;;;0.80;;
22644;SDS011;11489;50.834;6.752;2022-09-16T08:30:59;2.25;;;0.80;;
22644;SDS011;11489;50.834;6.752;2022-09-16T08:33:25;2.88;;;0.75;;
22644;SDS011;11489;50.834;6.752;2022-09-16T08:38:28;3.03;;;0.70;;
22644;SDS011;11489;50.834;6.752;2022-09-16T08:40:57;4.38;;;0.60;;
22644;SDS011;11489;50.834;6.752;2022-09-16T08:43:40;2.75;;;0.80;;
22644;SDS011;11489;50.834;6.752;2022-09-16T08:51:25;3.85;;;0.73;;
22644;SDS011;11489;50.834;6.752;2022-09-16T08:56:52;1.00;;;0.52;;
22644;SDS011;11489;50.834;6.752;2022-09-16T08:59:21;1.05;;;0.50;;
22644;SDS011;11489;50.834;6.752;2022-09-16T09:01:54;2.42;;;0.52;;
22644;SDS011;11489;50.834;6.752;2022-09-16T09:04:28;4.43;;;0.75;;
22644;SDS011;11489;50.834;6.752;2022-09-16T09:07:01;2.88;;;0.70;;
22644;SDS011;11489;50.834;6.752;2022-09-16T09:09:35;1.65;;;0.50;;
22644;SDS011;11489;50.834;6.752;2022-09-16T09:18:27;0.88;;;0.50;;
22644;SDS011;11489;50.834;6.752;2022-09-16T09:21:10;1.40;;;0.47;;
22644;SDS011;11489;50.834;6.752;2022-09-16T09:24:22;1.25;;;0.47;;
22644;SDS011;11489;50.834;6.752;2022-09-16T09:26:54;1.60;;;0.50;;
22644;SDS011;11489;50.834;6.752;2022-09-16T09:29:36;1.80;;;0.70;;
22644;SDS011;11489;50.834;6.752;2022-09-16T09:45:56;2.50;;;0.55;;
22644;SDS011;11489;50.834;6.752;2022-09-16T09:48:36;3.15;;;0.70;;
22644;SDS011;11489;50.834;6.752;2022-09-16T09:51:09;3.72;;;0.70;;
22644;SDS011;11489;50.834;6.752;2022-09-16T09:53:52;5.03;;;0.70;;
22644;SDS011;11489;50.834;6.752;2022-09-16T09:56:25;3.65;;;0.70;;
22644;SDS011;11489;50.834;6.752;2022-09-16T09:59:15;1.70;;;0.55;;
22644;SDS011;11489;50.834;6.752;2022-09-16T10:02:06;2.10;;;0.70;;
22644;SDS011;11489;50.834;6.752;2022-09-16T10:04:39;3.92;;;0.80;;
22644;SDS011;11489;50.834;6.752;2022-09-16T10:07:05;2.45;;;0.70;;
22644;SDS011;11489;50.834;6.752;2022-09-16T10:09:33;2.13;;;0.65;;
22644;SDS011;11489;50.834;6.752;2022-09-16T10:12:00;3.30;;;0.50;;
22644;SDS011;11489;50.834;6.752;2022-09-16T10:14:29;2.92;;;0.70;;
22644;SDS011;11489;50.834;6.752;2022-09-16T10:16:59;2.05;;;0.57;;
22644;SDS011;11489;50.834;6.752;2022-09-16T10:19:27;2.50;;;0.70;;
22644;SDS011;11489;50.834;6.752;2022-09-16T10:22:51;5.90;;;0.75;;
22644;SDS011;11489;50.834;6.752;2022-09-16T10:24:52;1.95;;;0.80;;
22644;SDS011;11489;50.834;6.752;2022-09-16T10:27:34;1.80;;;0.60;;
22644;SDS011;11489;50.834;6.752;2022-09-16T10:30:05;2.75;;;0.60;;
22644;SDS011;11489;50.834;6.752;2022-09-16T10:35:37;3.85;;;0.60;;
22644;SDS011;11489;50.834;6.752;2022-09-16T10:43:17;1.65;;;0.52;;
22644;SDS011;11489;50.834;6.752;2022-09-16T10:45:44;1.10;;;0.60;;
22644;SDS011;11489;50.834;6.752;2022-09-16T10:48:12;2.50;;;0.63;;
22644;SDS011;11489;50.834;6.752;2022-09-16T10:53:30;1.55;;;0.45;;
22644;SDS011;11489;50.834;6.752;2022-09-16T10:55:57;1.42;;;0.50;;
22644;SDS011;11489;50.834;6.752;2022-09-16T10:58:26;2.05;;;0.47;;
22644;SDS011;11489;50.834;6.752;2022-09-16T11:09:43;2.50;;;0.40;;
22644;SDS011;11489;50.834;6.752;2022-09-16T11:15:09;1.13;;;0.52;;
22644;SDS011;11489;50.834;6.752;2022-09-16T11:34:39;1.48;;;0.55;;
22644;SDS011;11489;50.834;6.752;2022-09-16T11:37:23;1.73;;;0.60;;
22644;SDS011;11489;50.834;6.752;2022-09-16T11:40:06;2.45;;;0.70;;
22644;SDS011;11489;50.834;6.752;2022-09-16T11:43:18;1.77;;;0.50;;
22644;SDS011;11489;50.834;6.752;2022-09-16T11:46:05;1.52;;;0.40;;
22644;SDS011;11489;50.834;6.752;2022-09-16T11:49:38;3.63;;;0.60;;
22644;SDS011;11489;50.834;6.752;2022-09-16T11:51:57;0.60;;;0.50;;
22644;SDS011;11489;50.834;6.752;2022-09-16T11:57:19;2.17;;;0.55;;
22644;SDS011;11489;50.834;6.752;2022-09-16T11:59:51;3.03;;;0.77;;
22644;SDS011;11489;50.834;6.752;2022-09-16T12:05:17;3.53;;;0.70;;
22644;SDS011;11489;50.834;6.752;2022-09-16T12:08:07;3.90;;;0.68;;
22644;SDS011;11489;50.834;6.752;2022-09-16T12:10:38;1.05;;;0.47;;
22644;SDS011;11489;50.834;6.752;2022-09-16T12:13:32;1.80;;;0.65;;
22644;SDS011;11489;50.834;6.752;2022-09-16T12:16:07;2.05;;;0.57;;
22644;SDS011;11489;50.834;6.752;2022-09-16T12:23:47;2.90;;;0.60;;
22644;SDS011;11489;50.834;6.752;2022-09-16T12:26:42;3.83;;;0.50;;
22644;SDS011;11489;50.834;6.752;2022-09-16T12:31:45;3.08;;;0.52;;
22644;SDS011;11489;50.834;6.752;2022-09-16T12:34:48;1.05;;;0.70;;
22644;SDS011;11489;50.834;6.752;2022-09-16T12:37:23;1.70;;;0.80;;
22644;SDS011;11489;50.834;6.752;2022-09-16T12:40:28;1.95;;;0.60;;
22644;SDS011;11489;50.834;6.752;2022-09-16T12:45:53;1.50;;;0.63;;
22644;SDS011;11489;50.834;6.752;2022-09-16T12:54:43;0.28;;;0.28;;
22644;SDS011;11489;50.834;6.752;2022-09-16T13:00:40;0.73;;;0.38;;
22644;SDS011;11489;50.834;6.752;2022-09-16T13:03:21;1.17;;;0.40;;
22644;SDS011;11489;50.834;6.752;2022-09-16T13:05:51;0.73;;;0.20;;
22644;SDS011;11489;50.834;6.752;2022-09-16T13:10:54;0.68;;;0.40;;
22644;SDS011;11489;50.834;6.752;2022-09-16T13:13:29;1.10;;;0.30;;
22644;SDS011;11489;50.834;6.752;2022-09-16T13:16:02;0.38;;;0.38;;
22644;SDS011;11489;50.834;6.752;2022-09-16T13:18:43;0.70;;;0.47;;
22644;SDS011;11489;50.834;6.752;2022-09-16T13:24:15;1.77;;;0.40;;
22644;SDS011;11489;50.834;6.752;2022-09-16T13:26:53;0.40;;;0.30;;
22644;SDS011;11489;50.834;6.752;2022-09-16T13:29:23;0.60;;;0.40;;
22644;SDS011;11489;50.834;6.752;2022-09-16T13:31:49;0.60;;;0.30;;
22644;SDS011;11489;50.834;6.752;2022-09-16T13:34:15;0.75;;;0.30;;
22644;SDS011;11489;50.834;6.752;2022-09-16T13:36:42;1.50;;;0.40;;
22644;SDS011;11489;50.834;6.752;2022-09-16T13:39:10;1.65;;;0.52;;
22644;SDS011;11489;50.834;6.752;2022-09-16T13:41:38;0.60;;;0.38;;
22644;SDS011;11489;50.834;6.752;2022-09-16T13:49:34;0.95;;;0.50;;
22644;SDS011;11489;50.834;6.752;2022-09-16T13:52:16;0.98;;;0.70;;
22644;SDS011;11489;50.834;6.752;2022-09-16T13:55:05;1.42;;;0.55;;
22644;SDS011;11489;50.834;6.752;2022-09-16T14:01:03;0.85;;;0.47;;
22644;SDS011;11489;50.834;6.752;2022-09-16T14:03:41;2.58;;;0.55;;
22644;SDS011;11489;50.834;6.752;2022-09-16T14:06:32;1.45;;;0.60;;
22644;SDS011;11489;50.834;6.752;2022-09-16T14:09:20;1.25;;;0.63;;
22644;SDS011;11489;50.834;6.752;2022-09-16T14:11:58;1.23;;;0.50;;
22644;SDS011;11489;50.834;6.752;2022-09-16T14:14:33;1.23;;;0.45;;
22644;SDS011;11489;50.834;6.752;2022-09-16T14:17:04;1.75;;;0.45;;
22644;SDS011;11489;50.834;6.752;2022-09-16T14:19:46;1.15;;;0.50;;
22644;SDS011;11489;50.834;6.752;2022-09-16T14:22:17;1.10;;;0.50;;
22644;SDS011;11489;50.834;6.752;2022-09-16T14:24:47;1.33;;;0.57;;
22644;SDS011;11489;50.834;6.752;2022-09-16T14:29:57;2.00;;;0.50;;
22644;SDS011;11489;50.834;6.752;2022-09-16T14:32:25;1.60;;;0.47;;
22644;SDS011;11489;50.834;6.752;2022-09-16T14:34:54;1.48;;;0.57;;
22644;SDS011;11489;50.834;6.752;2022-09-16T14:37:24;1.58;;;0.50;;
22644;SDS011;11489;50.834;6.752;2022-09-16T14:39:52;3.03;;;0.40;;
22644;SDS011;11489;50.834;6.752;2022-09-16T14:42:20;4.20;;;0.80;;
22644;SDS011;11489;50.834;6.752;2022-09-16T14:44:48;2.08;;;0.50;;
22644;SDS011;11489;50.834;6.752;2022-09-16T14:49:48;3.05;;;0.70;;
22644;SDS011;11489;50.834;6.752;2022-09-16T14:52:28;1.50;;;0.75;;
22644;SDS011;11489;50.834;6.752;2022-09-16T14:54:55;3.58;;;1.42;;
22644;SDS011;11489;50.834;6.752;2022-09-16T14:57:22;2.40;;;1.30;;
22644;SDS011;11489;50.834;6.752;2022-09-16T14:59:51;2.40;;;1.08;;
22644;SDS011;11489;50.834;6.752;2022-09-16T15:04:58;2.85;;;0.60;;
22644;SDS011;11489;50.834;6.752;2022-09-16T15:07:44;0.90;;;0.50;;
22644;SDS011;11489;50.834;6.752;2022-09-16T15:10:20;3.75;;;2.10;;
22644;SDS011;11489;50.834;6.752;2022-09-16T15:12:53;2.20;;;1.20;;
22644;SDS011;11489;50.834;6.752;2022-09-16T15:15:28;1.77;;;0.98;;
22644;SDS011;11489;50.834;6.752;2022-09-16T15:18:01;1.67;;;0.77;;
22644;SDS011;11489;50.834;6.752;2022-09-16T15:20:38;1.60;;;0.85;;
22644;SDS011;11489;50.834;6.752;2022-09-16T15:23:13;2.75;;;1.60;;
22644;SDS011;11489;50.834;6.752;2022-09-16T15:25:50;2.85;;;1.45;;
22644;SDS011;11489;50.834;6.752;2022-09-16T15:28:19;1.55;;;1.00;;
22644;SDS011;11489;50.834;6.752;2022-09-16T15:30:49;2.67;;;1.30;;
22644;SDS011;11489;50.834;6.752;2022-09-16T15:33:32;6.15;;;4.55;;
22644;SDS011;11489;50.834;6.752;2022-09-16T15:35:58;3.50;;;2.00;;
22644;SDS011;11489;50.834;6.752;2022-09-16T15:38:25;2.08;;;1.05;;
22644;SDS011;11489;50.834;6.752;2022-09-16T15:41:05;1.85;;;1.00;;
22644;SDS011;11489;50.834;6.752;2022-09-16T15:43:39;2.08;;;0.65;;
22644;SDS011;11489;50.834;6.752;2022-09-16T15:46:14;3.03;;;0.80;;
22644;SDS011;11489;50.834;6.752;2022-09-16T15:48:46;2.70;;;1.50;;
22644;SDS011;11489;50.834;6.752;2022-09-16T15:51:26;4.78;;;1.73;;
22644;SDS011;11489;50.834;6.752;2022-09-16T15:54:00;2.63;;;1.55;;
22644;SDS011;11489;50.834;6.752;2022-09-16T15:56:53;5.13;;;2.75;;
22644;SDS011;11489;50.834;6.752;2022-09-16T15:59:37;3.20;;;1.55;;
22644;SDS011;11489;50.834;6.752;2022-09-16T16:02:05;2.50;;;1.02;;
22644;SDS011;11489;50.834;6.752;2022-09-16T16:04:50;1.25;;;0.85;;
22644;SDS011;11489;50.834;6.752;2022-09-16T16:07:36;3.05;;;0.90;;
22644;SDS011;11489;50.834;6.752;2022-09-16T16:10:12;1.42;;;0.70;;
22644;SDS011;11489;50.834;6.752;2022-09-16T16:12:40;2.05;;;0.90;;
22644;SDS011;11489;50.834;6.752;2022-09-16T16:15:10;2.40;;;0.93;;
22644;SDS011;11489;50.834;6.752;2022-09-16T16:17:37;7.00;;;4.43;;
22644;SDS011;11489;50.834;6.752;2022-09-16T16:20:03;9.68;;;7.30;;
22644;SDS011;11489;50.834;6.752;2022-09-16T16:22:29;4.60;;;2.88;;
22644;SDS011;11489;50.834;6.752;2022-09-16T16:24:55;3.35;;;2.33;;
22644;SDS011;11489;50.834;6.752;2022-09-16T16:27:21;3.17;;;2.10;;
22644;SDS011;11489;50.834;6.752;2022-09-16T16:29:46;2.10;;;1.30;;
22644;SDS011;11489;50.834;6.752;2022-09-16T16:32:13;2.88;;;1.30;;
22644;SDS011;11489;50.834;6.752;2022-09-16T16:34:41;1.92;;;0.90;;
22644;SDS011;11489;50.834;6.752;2022-09-16T16:37:08;1.98;;;0.73;;
22644;SDS011;11489;50.834;6.752;2022-09-16T16:39:36;2.22;;;0.80;;
22644;SDS011;11489;50.834;6.752;2022-09-16T16:42:02;0.95;;;0.60;;
22644;SDS011;11489;50.834;6.752;2022-09-16T16:44:29;2.50;;;0.50;;
22644;SDS011;11489;50.834;6.752;2022-09-16T16:46:56;1.30;;;0.40;;
22644;SDS011;11489;50.834;6.752;2022-09-16T16:49:21;0.80;;;0.50;;
22644;SDS011;11489;50.834;6.752;2022-09-16T16:51:48;1.25;;;0.40;;
22644;SDS011;11489;50.834;6.752;2022-09-16T16:54:15;1.48;;;0.45;;
22644;SDS011;11489;50.834;6.752;2022-09-16T16:56:42;1.23;;;0.40;;
22644;SDS011;11489;50.834;6.752;2022-09-16T16:59:08;1.58;;;0.90;;
22644;SDS011;11489;50.834;6.752;2022-09-16T17:01:34;1.90;;;0.70;;
22644;SDS011;11489;50.834;6.752;2022-09-16T17:04:00;1.73;;;0.63;;
22644;SDS011;11489;50.834;6.752;2022-09-16T17:06:27;1.25;;;0.60;;
22644;SDS011;11489;50.834;6.752;2022-09-16T17:08:54;1.75;;;0.80;;
22644;SDS011;11489;50.834;6.752;2022-09-16T17:11:20;1.95;;;0.43;;
22644;SDS011;11489;50.834;6.752;2022-09-16T17:13:47;0.90;;;0.40;;
22644;SDS011;11489;50.834;6.752;2022-09-16T17:16:15;1.60;;;0.57;;
22644;SDS011;11489;50.834;6.752;2022-09-16T17:18:48;1.40;;;0.40;;
22644;SDS011;11489;50.834;6.752;2022-09-16T17:21:19;2.10;;;1.20;;
22644;SDS011;11489;50.834;6.752;2022-09-16T17:23:49;1.45;;;0.68;;
22644;SDS011;11489;50.834;6.752;2022-09-16T17:26:15;1.27;;;0.70;;
22644;SDS011;11489;50.834;6.752;2022-09-16T17:28:42;4.18;;;1.65;;
22644;SDS011;11489;50.834;6.752;2022-09-16T17:31:17;3.53;;;1.90;;
22644;SDS011;11489;50.834;6.752;2022-09-16T17:33:54;1.83;;;1.15;;
22644;SDS011;11489;50.834;6.752;2022-09-16T17:36:21;3.90;;;1.58;;
22644;SDS011;11489;50.834;6.752;2022-09-16T17:38:55;5.50;;;1.80;;
22644;SDS011;11489;50.834;6.752;2022-09-16T17:41:22;2.63;;;1.10;;
22644;SDS011;11489;50.834;6.752;2022-09-16T17:43:51;1.75;;;1.00;;
22644;SDS011;11489;50.834;6.752;2022-09-16T17:46:20;6.65;;;4.38;;